EKBH weather

Svæveflyvecenter Arnborg
Arnborg, Central Jutland, Denmark

Public forecast

Using degrees Celsius for public forecast. Weather courtesy of forecast.io.

Closest aviation weather report (METAR) to Svæveflyvecenter Arnborg

Closest report is Billund Airport, 17.0 nm (31.4 km) SSE. Retrieved 2020/04/05 00:20 UTC (20 minutes ago):

EKBI 050020Z AUTO 13001KT 3400 BR NCD 00/M00 Q1027

Closest aviation forecast (TAF) to Svæveflyvecenter Arnborg

Closest forecast is Billund Airport, 17.0 nm (31.4 km) SSE. Retrieved 2020-04-05 00:09 UTC (31 minutes ago):

TAF TAF EKBI 042305Z 0500/0524 16003KT 9999 FEW030 TEMPO 0500/0504 1500 BCFG BKN003 BECMG 0507/0510 14013KT